sensor_id;sensor_type;location;lat;lon;timestamp;pressure;altitude;pressure_sealevel;temperature;humidity
36748;BME280;22716;51.556;5.080;2022-08-11T00:00:07;102022.84;;;23.79;45.96
36748;BME280;22716;51.556;5.080;2022-08-11T00:02:44;102029.13;;;23.78;46.28
36748;BME280;22716;51.556;5.080;2022-08-11T00:05:19;102026.94;;;23.68;46.59
36748;BME280;22716;51.556;5.080;2022-08-11T00:07:51;102029.63;;;23.68;46.51
36748;BME280;22716;51.556;5.080;2022-08-11T00:10:30;102025.19;;;23.67;46.61
36748;BME280;22716;51.556;5.080;2022-08-11T00:13:02;102024.47;;;23.63;46.90
36748;BME280;22716;51.556;5.080;2022-08-11T00:15:40;102021.22;;;23.57;46.77
36748;BME280;22716;51.556;5.080;2022-08-11T00:18:11;101997.63;;;23.46;47.14
36748;BME280;22716;51.556;5.080;2022-08-11T00:20:45;102033.09;;;23.51;47.27
36748;BME280;22716;51.556;5.080;2022-08-11T00:23:17;102019.16;;;23.43;47.32
36748;BME280;22716;51.556;5.080;2022-08-11T00:25:51;102027.13;;;23.45;47.44
36748;BME280;22716;51.556;5.080;2022-08-11T00:28:25;102029.88;;;23.43;47.22
36748;BME280;22716;51.556;5.080;2022-08-11T00:30:57;102031.75;;;23.41;47.79
36748;BME280;22716;51.556;5.080;2022-08-11T00:33:34;102027.28;;;23.41;47.42
36748;BME280;22716;51.556;5.080;2022-08-11T00:36:10;102029.19;;;23.38;47.34
36748;BME280;22716;51.556;5.080;2022-08-11T00:38:43;102025.72;;;23.36;47.78
36748;BME280;22716;51.556;5.080;2022-08-11T00:41:26;102022.34;;;23.31;48.08
36748;BME280;22716;51.556;5.080;2022-08-11T00:44:17;102031.38;;;23.28;48.24
36748;BME280;22716;51.556;5.080;2022-08-11T00:47:03;102029.72;;;23.26;48.39
36748;BME280;22716;51.556;5.080;2022-08-11T00:49:44;102037.69;;;23.27;47.98
36748;BME280;22716;51.556;5.080;2022-08-11T00:52:35;102031.75;;;23.21;48.02
36748;BME280;22716;51.556;5.080;2022-08-11T01:01:49;102020.94;;;23.04;48.98
36748;BME280;22716;51.556;5.080;2022-08-11T01:04:57;102018.50;;;22.98;49.16
36748;BME280;22716;51.556;5.080;2022-08-11T01:08:02;102020.44;;;22.94;49.64
36748;BME280;22716;51.556;5.080;2022-08-11T01:11:13;102024.03;;;22.93;50.02
36748;BME280;22716;51.556;5.080;2022-08-11T01:17:46;102016.03;;;22.93;49.46
36748;BME280;22716;51.556;5.080;2022-08-11T01:20:52;102016.41;;;22.84;50.00
36748;BME280;22716;51.556;5.080;2022-08-11T01:24:19;102018.38;;;22.80;49.56
36748;BME280;22716;51.556;5.080;2022-08-11T01:27:14;101991.03;;;22.74;49.86
36748;BME280;22716;51.556;5.080;2022-08-11T01:40:13;102017.94;;;22.69;50.51
36748;BME280;22716;51.556;5.080;2022-08-11T01:43:08;102010.00;;;22.68;50.49
36748;BME280;22716;51.556;5.080;2022-08-11T01:45:58;102018.00;;;22.68;50.64
36748;BME280;22716;51.556;5.080;2022-08-11T01:48:40;102012.28;;;22.55;51.14
36748;BME280;22716;51.556;5.080;2022-08-11T01:51:23;102008.00;;;22.51;51.21
36748;BME280;22716;51.556;5.080;2022-08-11T01:54:02;102014.03;;;22.56;51.49
36748;BME280;22716;51.556;5.080;2022-08-11T01:56:54;102021.28;;;22.53;51.38
36748;BME280;22716;51.556;5.080;2022-08-11T01:59:31;102026.00;;;22.46;51.76
36748;BME280;22716;51.556;5.080;2022-08-11T02:02:22;102019.66;;;22.49;51.50
36748;BME280;22716;51.556;5.080;2022-08-11T02:05:26;102025.22;;;22.44;51.73
36748;BME280;22716;51.556;5.080;2022-08-11T02:08:07;102027.75;;;22.47;51.73
36748;BME280;22716;51.556;5.080;2022-08-11T02:10:45;102031.44;;;22.45;52.12
36748;BME280;22716;51.556;5.080;2022-08-11T02:13:41;102025.41;;;22.40;52.14
36748;BME280;22716;51.556;5.080;2022-08-11T02:16:25;102021.13;;;22.36;52.58
36748;BME280;22716;51.556;5.080;2022-08-11T02:19:08;102029.28;;;22.31;52.36
36748;BME280;22716;51.556;5.080;2022-08-11T02:21:58;102020.63;;;22.26;53.03
36748;BME280;22716;51.556;5.080;2022-08-11T02:24:48;102027.88;;;22.22;53.10
36748;BME280;22716;51.556;5.080;2022-08-11T02:27:26;102028.06;;;22.18;52.94
36748;BME280;22716;51.556;5.080;2022-08-11T02:30:08;102006.16;;;22.10;53.28
36748;BME280;22716;51.556;5.080;2022-08-11T02:32:50;102018.38;;;22.15;53.76
36748;BME280;22716;51.556;5.080;2022-08-11T02:35:40;102020.38;;;22.10;54.11
36748;BME280;22716;51.556;5.080;2022-08-11T02:38:18;102006.53;;;22.01;54.33
36748;BME280;22716;51.556;5.080;2022-08-11T02:40:58;102004.78;;;22.00;54.53
36748;BME280;22716;51.556;5.080;2022-08-11T02:43:41;101990.78;;;21.93;54.60
36748;BME280;22716;51.556;5.080;2022-08-11T02:46:25;102009.34;;;21.96;54.78
36748;BME280;22716;51.556;5.080;2022-08-11T02:49:14;102004.13;;;21.93;54.78
36748;BME280;22716;51.556;5.080;2022-08-11T02:52:07;102007.69;;;21.94;54.97
36748;BME280;22716;51.556;5.080;2022-08-11T02:54:44;101993.84;;;21.83;55.03
36748;BME280;22716;51.556;5.080;2022-08-11T02:57:24;102007.19;;;21.83;55.74
36748;BME280;22716;51.556;5.080;2022-08-11T03:00:06;102005.63;;;21.77;55.80
36748;BME280;22716;51.556;5.080;2022-08-11T03:03:14;102011.91;;;21.76;56.29
36748;BME280;22716;51.556;5.080;2022-08-11T03:06:04;102003.25;;;21.69;56.70
36748;BME280;22716;51.556;5.080;2022-08-11T03:09:02;101996.53;;;21.59;56.29
36748;BME280;22716;51.556;5.080;2022-08-11T03:11:49;102000.09;;;21.60;56.90
36748;BME280;22716;51.556;5.080;2022-08-11T03:14:46;102009.81;;;21.61;56.57
36748;BME280;22716;51.556;5.080;2022-08-11T03:17:38;102009.19;;;21.54;57.25
36748;BME280;22716;51.556;5.080;2022-08-11T03:20:22;102014.63;;;21.51;57.66
36748;BME280;22716;51.556;5.080;2022-08-11T03:23:03;102013.81;;;21.49;57.07
36748;BME280;22716;51.556;5.080;2022-08-11T03:25:46;102015.56;;;21.50;57.66
36748;BME280;22716;51.556;5.080;2022-08-11T03:28:28;102013.00;;;21.47;57.50
36748;BME280;22716;51.556;5.080;2022-08-11T03:31:31;102010.44;;;21.44;57.45
36748;BME280;22716;51.556;5.080;2022-08-11T03:34:06;102009.66;;;21.42;57.68
36748;BME280;22716;51.556;5.080;2022-08-11T03:37:14;102006.38;;;21.34;57.56
36748;BME280;22716;51.556;5.080;2022-08-11T03:40:09;102013.28;;;21.40;58.00
36748;BME280;22716;51.556;5.080;2022-08-11T03:42:49;102005.53;;;21.34;58.48
36748;BME280;22716;51.556;5.080;2022-08-11T03:45:27;102005.78;;;21.26;58.48
36748;BME280;22716;51.556;5.080;2022-08-11T03:48:09;101999.75;;;21.21;58.87
36748;BME280;22716;51.556;5.080;2022-08-11T03:51:02;102010.31;;;21.24;58.67
36748;BME280;22716;51.556;5.080;2022-08-11T04:00:10;102013.19;;;21.18;59.35
36748;BME280;22716;51.556;5.080;2022-08-11T04:06:27;102004.78;;;21.04;59.46
36748;BME280;22716;51.556;5.080;2022-08-11T04:09:40;102010.16;;;21.02;59.57
36748;BME280;22716;51.556;5.080;2022-08-11T04:18:54;102004.72;;;20.81;60.99
36748;BME280;22716;51.556;5.080;2022-08-11T04:22:15;102002.28;;;20.75;61.53
36748;BME280;22716;51.556;5.080;2022-08-11T04:25:10;101996.97;;;20.73;61.22
36748;BME280;22716;51.556;5.080;2022-08-11T04:31:08;102003.25;;;20.72;61.73
36748;BME280;22716;51.556;5.080;2022-08-11T04:37:09;102004.34;;;20.66;62.15
36748;BME280;22716;51.556;5.080;2022-08-11T04:43:21;102003.28;;;20.71;62.01
36748;BME280;22716;51.556;5.080;2022-08-11T04:46:29;102005.16;;;20.68;62.32
36748;BME280;22716;51.556;5.080;2022-08-11T04:49:30;102000.63;;;20.71;62.46
36748;BME280;22716;51.556;5.080;2022-08-11T04:52:34;102006.94;;;20.68;62.01
36748;BME280;22716;51.556;5.080;2022-08-11T04:56:07;102004.06;;;20.74;62.20
36748;BME280;22716;51.556;5.080;2022-08-11T04:59:10;102004.00;;;20.76;62.17
36748;BME280;22716;51.556;5.080;2022-08-11T05:05:18;102011.97;;;20.76;62.30
36748;BME280;22716;51.556;5.080;2022-08-11T05:11:38;102010.00;;;20.82;62.40
36748;BME280;22716;51.556;5.080;2022-08-11T05:14:44;102006.25;;;20.88;62.02
36748;BME280;22716;51.556;5.080;2022-08-11T05:17:37;102007.78;;;20.95;62.03
36748;BME280;22716;51.556;5.080;2022-08-11T05:20:24;102009.53;;;20.96;62.01
36748;BME280;22716;51.556;5.080;2022-08-11T05:23:10;102011.22;;;20.98;61.67
36748;BME280;22716;51.556;5.080;2022-08-11T05:25:55;102018.13;;;21.04;61.72
36748;BME280;22716;51.556;5.080;2022-08-11T05:28:43;102001.44;;;20.99;61.93
36748;BME280;22716;51.556;5.080;2022-08-11T05:31:35;102008.88;;;21.14;61.70
36748;BME280;22716;51.556;5.080;2022-08-11T05:34:21;102004.22;;;21.20;61.19
36748;BME280;22716;51.556;5.080;2022-08-11T05:37:04;102014.75;;;21.23;61.17
36748;BME280;22716;51.556;5.080;2022-08-11T05:39:43;102011.69;;;21.34;60.99
36748;BME280;22716;51.556;5.080;2022-08-11T05:42:26;102015.19;;;21.36;61.08
36748;BME280;22716;51.556;5.080;2022-08-11T05:45:11;101997.91;;;21.23;61.43
36748;BME280;22716;51.556;5.080;2022-08-11T05:47:57;102011.69;;;21.34;61.27
36748;BME280;22716;51.556;5.080;2022-08-11T05:50:39;102009.66;;;21.42;60.64
36748;BME280;22716;51.556;5.080;2022-08-11T05:53:21;102020.88;;;21.50;60.32
36748;BME280;22716;51.556;5.080;2022-08-11T05:56:04;102014.69;;;21.50;60.28
36748;BME280;22716;51.556;5.080;2022-08-11T05:58:58;102024.00;;;21.38;60.73
36748;BME280;22716;51.556;5.080;2022-08-11T06:01:32;102013.09;;;21.44;60.39
36748;BME280;22716;51.556;5.080;2022-08-11T06:04:11;102018.22;;;21.50;60.18
36748;BME280;22716;51.556;5.080;2022-08-11T06:06:50;102014.41;;;21.57;60.40
36748;BME280;22716;51.556;5.080;2022-08-11T06:09:26;102019.25;;;21.69;59.99
36748;BME280;22716;51.556;5.080;2022-08-11T06:12:00;102026.44;;;21.67;60.41
36748;BME280;22716;51.556;5.080;2022-08-11T06:14:34;102015.31;;;21.79;59.87
36748;BME280;22716;51.556;5.080;2022-08-11T06:17:12;102020.41;;;21.86;59.54
36748;BME280;22716;51.556;5.080;2022-08-11T06:19:47;102017.19;;;22.01;58.88
36748;BME280;22716;51.556;5.080;2022-08-11T06:22:20;102017.88;;;22.06;58.97
36748;BME280;22716;51.556;5.080;2022-08-11T06:24:52;102022.06;;;22.13;58.76
36748;BME280;22716;51.556;5.080;2022-08-11T06:27:25;102019.25;;;22.16;58.66
36748;BME280;22716;51.556;5.080;2022-08-11T06:29:57;102011.50;;;22.10;58.66
36748;BME280;22716;51.556;5.080;2022-08-11T06:32:43;102022.72;;;22.18;58.21
36748;BME280;22716;51.556;5.080;2022-08-11T06:35:22;102030.25;;;22.30;58.20
36748;BME280;22716;51.556;5.080;2022-08-11T06:38:07;102029.00;;;22.39;58.17
36748;BME280;22716;51.556;5.080;2022-08-11T06:40:42;102024.28;;;22.45;57.77
36748;BME280;22716;51.556;5.080;2022-08-11T06:43:46;102019.66;;;22.49;58.01
36748;BME280;22716;51.556;5.080;2022-08-11T06:46:25;102020.63;;;22.48;57.13
36748;BME280;22716;51.556;5.080;2022-08-11T06:48:59;102025.47;;;22.60;56.93
36748;BME280;22716;51.556;5.080;2022-08-11T06:51:33;102017.94;;;22.69;56.60
36748;BME280;22716;51.556;5.080;2022-08-11T06:54:03;102019.34;;;22.78;56.15
36748;BME280;22716;51.556;5.080;2022-08-11T06:56:38;102026.56;;;22.76;56.26
36748;BME280;22716;51.556;5.080;2022-08-11T06:59:23;102026.38;;;22.80;56.31
36748;BME280;22716;51.556;5.080;2022-08-11T07:02:11;102021.88;;;22.81;55.78
36748;BME280;22716;51.556;5.080;2022-08-11T07:04:46;102025.44;;;22.81;55.87
36748;BME280;22716;51.556;5.080;2022-08-11T07:10:52;102022.91;;;22.99;55.27
36748;BME280;22716;51.556;5.080;2022-08-11T07:13:44;102001.34;;;23.03;55.81
36748;BME280;22716;51.556;5.080;2022-08-11T07:16:29;102015.03;;;23.16;55.30
36748;BME280;22716;51.556;5.080;2022-08-11T07:19:04;102017.50;;;23.20;54.99
36748;BME280;22716;51.556;5.080;2022-08-11T07:21:48;102014.81;;;23.20;54.98
36748;BME280;22716;51.556;5.080;2022-08-11T07:24:36;102028.53;;;23.33;54.53
36748;BME280;22716;51.556;5.080;2022-08-11T07:27:34;102023.50;;;23.46;54.07
36748;BME280;22716;51.556;5.080;2022-08-11T07:30:19;102028.53;;;23.53;53.77
36748;BME280;22716;51.556;5.080;2022-08-11T07:32:51;102020.06;;;23.62;53.86
36748;BME280;22716;51.556;5.080;2022-08-11T07:35:27;102022.34;;;23.71;53.81
36748;BME280;22716;51.556;5.080;2022-08-11T07:38:05;102025.41;;;23.81;53.55
36748;BME280;22716;51.556;5.080;2022-08-11T07:40:37;102027.25;;;23.80;53.05
36748;BME280;22716;51.556;5.080;2022-08-11T07:43:11;102026.28;;;23.81;53.00
36748;BME280;22716;51.556;5.080;2022-08-11T07:45:43;102030.50;;;23.87;53.27
36748;BME280;22716;51.556;5.080;2022-08-11T07:48:29;102018.56;;;23.94;53.27
36748;BME280;22716;51.556;5.080;2022-08-11T07:51:14;102027.03;;;24.04;53.36
36748;BME280;22716;51.556;5.080;2022-08-11T07:53:58;102025.00;;;24.09;52.44
36748;BME280;22716;51.556;5.080;2022-08-11T07:56:27;102028.19;;;24.17;52.11
36748;BME280;22716;51.556;5.080;2022-08-11T07:58:59;102025.16;;;24.24;51.91
36748;BME280;22716;51.556;5.080;2022-08-11T08:01:41;102024.88;;;24.30;51.81
36748;BME280;22716;51.556;5.080;2022-08-11T08:04:23;102023.69;;;24.36;51.33
36748;BME280;22716;51.556;5.080;2022-08-11T08:07:06;102015.44;;;24.40;51.41
36748;BME280;22716;51.556;5.080;2022-08-11T08:09:49;102023.25;;;24.45;50.87
36748;BME280;22716;51.556;5.080;2022-08-11T08:12:32;102022.84;;;24.52;50.82
36748;BME280;22716;51.556;5.080;2022-08-11T08:15:19;102019.78;;;24.60;49.62
36748;BME280;22716;51.556;5.080;2022-08-11T08:18:03;102021.47;;;24.63;49.05
36748;BME280;22716;51.556;5.080;2022-08-11T08:20:38;102008.91;;;24.63;49.10
36748;BME280;22716;51.556;5.080;2022-08-11T08:23:08;102026.78;;;24.81;48.77
36748;BME280;22716;51.556;5.080;2022-08-11T08:25:41;102020.31;;;24.85;48.50
36748;BME280;22716;51.556;5.080;2022-08-11T08:28:14;102027.75;;;24.97;48.49
36748;BME280;22716;51.556;5.080;2022-08-11T08:30:48;102020.31;;;25.02;47.57
36748;BME280;22716;51.556;5.080;2022-08-11T08:33:21;102016.28;;;25.11;47.53
36748;BME280;22716;51.556;5.080;2022-08-11T08:35:53;102019.50;;;25.18;46.92
36748;BME280;22716;51.556;5.080;2022-08-11T08:38:40;102023.69;;;25.23;46.92
36748;BME280;22716;51.556;5.080;2022-08-11T08:41:10;102015.38;;;25.28;46.43
36748;BME280;22716;51.556;5.080;2022-08-11T08:43:43;102015.31;;;25.29;46.02
36748;BME280;22716;51.556;5.080;2022-08-11T08:46:21;102016.91;;;25.33;45.56
36748;BME280;22716;51.556;5.080;2022-08-11T08:48:54;102016.53;;;25.39;45.76
36748;BME280;22716;51.556;5.080;2022-08-11T08:51:33;102012.56;;;25.48;45.80
36748;BME280;22716;51.556;5.080;2022-08-11T08:54:08;102008.75;;;25.52;45.12
36748;BME280;22716;51.556;5.080;2022-08-11T08:56:43;102012.19;;;25.54;44.52
36748;BME280;22716;51.556;5.080;2022-08-11T08:59:14;102011.19;;;25.56;44.12
36748;BME280;22716;51.556;5.080;2022-08-11T09:02:00;102005.38;;;25.64;44.04
36748;BME280;22716;51.556;5.080;2022-08-11T09:04:30;102013.09;;;25.70;43.91
36748;BME280;22716;51.556;5.080;2022-08-11T09:07:08;102007.56;;;25.73;44.03
36748;BME280;22716;51.556;5.080;2022-08-11T09:09:41;102005.47;;;25.78;43.80
36748;BME280;22716;51.556;5.080;2022-08-11T09:12:12;102012.97;;;25.89;43.07
36748;BME280;22716;51.556;5.080;2022-08-11T09:14:47;102012.34;;;25.99;43.22
36748;BME280;22716;51.556;5.080;2022-08-11T09:17:37;102011.22;;;26.03;43.09
36748;BME280;22716;51.556;5.080;2022-08-11T09:20:12;102003.06;;;26.05;43.13
36748;BME280;22716;51.556;5.080;2022-08-11T09:22:44;102014.09;;;26.16;42.92
36748;BME280;22716;51.556;5.080;2022-08-11T09:25:29;102005.69;;;26.22;43.09
36748;BME280;22716;51.556;5.080;2022-08-11T09:28:16;102003.47;;;26.30;42.88
36748;BME280;22716;51.556;5.080;2022-08-11T09:30:49;102004.75;;;26.39;42.96
36748;BME280;22716;51.556;5.080;2022-08-11T09:33:24;101994.59;;;26.44;42.58
36748;BME280;22716;51.556;5.080;2022-08-11T09:35:53;101990.31;;;26.40;41.85
36748;BME280;22716;51.556;5.080;2022-08-11T09:38:25;101992.47;;;26.49;41.61
36748;BME280;22716;51.556;5.080;2022-08-11T09:41:09;101989.38;;;26.56;41.14
36748;BME280;22716;51.556;5.080;2022-08-11T09:43:42;101976.69;;;26.58;40.73
36748;BME280;22716;51.556;5.080;2022-08-11T09:46:26;101994.16;;;26.65;40.23
36748;BME280;22716;51.556;5.080;2022-08-11T09:48:59;101986.53;;;26.73;40.14
36748;BME280;22716;51.556;5.080;2022-08-11T09:51:31;101983.22;;;26.68;39.12
36748;BME280;22716;51.556;5.080;2022-08-11T09:54:02;101982.69;;;26.78;39.67
36748;BME280;22716;51.556;5.080;2022-08-11T09:56:34;101976.97;;;26.84;39.45
36748;BME280;22716;51.556;5.080;2022-08-11T09:59:18;101979.41;;;26.88;38.72
36748;BME280;22716;51.556;5.080;2022-08-11T10:01:54;101973.72;;;26.93;39.00
36748;BME280;22716;51.556;5.080;2022-08-11T10:04:34;101972.41;;;27.00;39.06
36748;BME280;22716;51.556;5.080;2022-08-11T10:07:05;101974.78;;;27.04;39.00
36748;BME280;22716;51.556;5.080;2022-08-11T10:09:39;101967.97;;;27.13;39.17
36748;BME280;22716;51.556;5.080;2022-08-11T10:12:13;101963.97;;;27.20;38.91
36748;BME280;22716;51.556;5.080;2022-08-11T10:14:45;101972.41;;;27.28;38.65
36748;BME280;22716;51.556;5.080;2022-08-11T10:17:35;101973.19;;;27.30;38.53
36748;BME280;22716;51.556;5.080;2022-08-11T10:20:34;101971.75;;;27.39;37.84
36748;BME280;22716;51.556;5.080;2022-08-11T10:23:08;101970.44;;;27.46;37.60
36748;BME280;22716;51.556;5.080;2022-08-11T10:25:52;101959.59;;;27.47;36.99
36748;BME280;22716;51.556;5.080;2022-08-11T10:28:36;101965.81;;;27.48;37.19
36748;BME280;22716;51.556;5.080;2022-08-11T10:31:05;101955.25;;;27.59;37.64
36748;BME280;22716;51.556;5.080;2022-08-11T10:33:49;101954.75;;;27.66;36.95
36748;BME280;22716;51.556;5.080;2022-08-11T10:36:35;101962.91;;;27.79;37.28
36748;BME280;22716;51.556;5.080;2022-08-11T10:39:14;101951.13;;;27.80;36.50
36748;BME280;22716;51.556;5.080;2022-08-11T10:41:50;101965.41;;;27.82;35.97
36748;BME280;22716;51.556;5.080;2022-08-11T10:44:39;101951.06;;;27.81;35.75
36748;BME280;22716;51.556;5.080;2022-08-11T10:47:12;101954.22;;;27.88;35.22
36748;BME280;22716;51.556;5.080;2022-08-11T10:49:56;101956.25;;;27.85;35.68
36748;BME280;22716;51.556;5.080;2022-08-11T10:52:46;101951.53;;;27.88;35.33
36748;BME280;22716;51.556;5.080;2022-08-11T10:55:32;101947.25;;;27.98;34.86
36748;BME280;22716;51.556;5.080;2022-08-11T10:58:15;101949.19;;;27.96;35.01
36748;BME280;22716;51.556;5.080;2022-08-11T11:00:58;101944.75;;;27.95;34.69
36748;BME280;22716;51.556;5.080;2022-08-11T11:03:30;101937.47;;;27.97;34.18
36748;BME280;22716;51.556;5.080;2022-08-11T11:06:08;101932.13;;;28.10;34.26
36748;BME280;22716;51.556;5.080;2022-08-11T11:08:48;101930.22;;;28.12;33.90
36748;BME280;22716;51.556;5.080;2022-08-11T11:11:23;101933.25;;;28.20;33.14
36748;BME280;22716;51.556;5.080;2022-08-11T11:14:16;101931.03;;;28.26;32.83
36748;BME280;22716;51.556;5.080;2022-08-11T11:16:59;101929.84;;;28.30;32.63
36748;BME280;22716;51.556;5.080;2022-08-11T11:19:42;101934.94;;;28.35;33.05
36748;BME280;22716;51.556;5.080;2022-08-11T11:22:14;101916.16;;;28.33;32.69
36748;BME280;22716;51.556;5.080;2022-08-11T11:25:04;101923.94;;;28.51;32.54
36748;BME280;22716;51.556;5.080;2022-08-11T11:27:49;101924.41;;;28.57;32.06
36748;BME280;22716;51.556;5.080;2022-08-11T11:30:30;101930.06;;;28.67;31.98
36748;BME280;22716;51.556;5.080;2022-08-11T11:33:10;101930.50;;;28.73;31.83
36748;BME280;22716;51.556;5.080;2022-08-11T11:35:57;101927.94;;;28.84;31.19
36748;BME280;22716;51.556;5.080;2022-08-11T11:38:29;101922.19;;;28.89;31.38
36748;BME280;22716;51.556;5.080;2022-08-11T11:41:01;101919.94;;;28.96;31.56
36748;BME280;22716;51.556;5.080;2022-08-11T11:43:43;101913.25;;;29.01;30.90
36748;BME280;22716;51.556;5.080;2022-08-11T11:46:15;101911.84;;;29.08;30.75
36748;BME280;22716;51.556;5.080;2022-08-11T11:48:44;101919.16;;;29.19;30.73
36748;BME280;22716;51.556;5.080;2022-08-11T11:51:15;101915.19;;;29.24;30.53
36748;BME280;22716;51.556;5.080;2022-08-11T11:53:46;101913.88;;;29.30;30.13
36748;BME280;22716;51.556;5.080;2022-08-11T11:56:23;101907.72;;;29.40;30.43
36748;BME280;22716;51.556;5.080;2022-08-11T11:58:53;101916.88;;;29.51;30.41
36748;BME280;22716;51.556;5.080;2022-08-11T12:01:36;101886.13;;;29.40;29.94
36748;BME280;22716;51.556;5.080;2022-08-11T12:04:05;101902.69;;;29.60;29.92
36748;BME280;22716;51.556;5.080;2022-08-11T12:06:36;101901.69;;;29.73;29.77
36748;BME280;22716;51.556;5.080;2022-08-11T12:09:07;101896.69;;;29.80;29.40
36748;BME280;22716;51.556;5.080;2022-08-11T12:11:47;101889.16;;;29.85;28.99
36748;BME280;22716;51.556;5.080;2022-08-11T12:14:32;101887.59;;;29.93;28.59
36748;BME280;22716;51.556;5.080;2022-08-11T12:17:02;101894.66;;;30.07;28.72
36748;BME280;22716;51.556;5.080;2022-08-11T12:19:32;101886.81;;;30.15;28.28
36748;BME280;22716;51.556;5.080;2022-08-11T12:22:01;101878.47;;;30.18;28.51
36748;BME280;22716;51.556;5.080;2022-08-11T12:24:44;101875.06;;;30.27;27.99
36748;BME280;22716;51.556;5.080;2022-08-11T12:27:30;101872.38;;;30.27;28.15
36748;BME280;22716;51.556;5.080;2022-08-11T12:30:02;101879.22;;;30.44;28.01
36748;BME280;22716;51.556;5.080;2022-08-11T12:32:36;101875.22;;;30.61;28.15
36748;BME280;22716;51.556;5.080;2022-08-11T12:35:08;101867.09;;;30.61;28.23
36748;BME280;22716;51.556;5.080;2022-08-11T12:37:40;101868.34;;;30.79;27.83
36748;BME280;22716;51.556;5.080;2022-08-11T12:40:13;101869.31;;;30.89;27.93
36748;BME280;22716;51.556;5.080;2022-08-11T12:43:01;101865.69;;;31.01;27.63
36748;BME280;22716;51.556;5.080;2022-08-11T12:45:44;101864.47;;;31.05;27.34
36748;BME280;22716;51.556;5.080;2022-08-11T12:48:18;101860.00;;;31.15;27.21
36748;BME280;22716;51.556;5.080;2022-08-11T12:51:02;101859.16;;;31.26;27.35
36748;BME280;22716;51.556;5.080;2022-08-11T12:54:05;101856.28;;;31.38;26.78
36748;BME280;22716;51.556;5.080;2022-08-11T12:56:40;101861.75;;;31.49;26.81
36748;BME280;22716;51.556;5.080;2022-08-11T12:59:25;101849.16;;;31.59;25.79
36748;BME280;22716;51.556;5.080;2022-08-11T13:02:09;101843.19;;;31.77;25.88
36748;BME280;22716;51.556;5.080;2022-08-11T13:04:53;101846.69;;;31.88;25.69
36748;BME280;22716;51.556;5.080;2022-08-11T13:07:25;101843.38;;;31.96;25.67
36748;BME280;22716;51.556;5.080;2022-08-11T13:09:58;101844.06;;;32.09;25.42
36748;BME280;22716;51.556;5.080;2022-08-11T13:12:31;101826.16;;;32.17;25.42
36748;BME280;22716;51.556;5.080;2022-08-11T13:15:21;101829.06;;;32.46;24.67
36748;BME280;22716;51.556;5.080;2022-08-11T13:17:54;101826.53;;;32.54;25.04
36748;BME280;22716;51.556;5.080;2022-08-11T13:20:25;101817.97;;;32.49;24.42
36748;BME280;22716;51.556;5.080;2022-08-11T13:22:56;101827.34;;;32.66;24.57
36748;BME280;22716;51.556;5.080;2022-08-11T13:25:30;101822.25;;;32.72;23.88
36748;BME280;22716;51.556;5.080;2022-08-11T13:28:00;101812.13;;;32.75;23.02
36748;BME280;22716;51.556;5.080;2022-08-11T13:30:33;101818.78;;;33.01;23.17
36748;BME280;22716;51.556;5.080;2022-08-11T13:33:16;101814.47;;;33.19;22.67
36748;BME280;22716;51.556;5.080;2022-08-11T13:35:46;101816.22;;;33.39;22.77
36748;BME280;22716;51.556;5.080;2022-08-11T13:38:19;101819.56;;;33.62;22.57
36748;BME280;22716;51.556;5.080;2022-08-11T13:40:52;101818.25;;;33.56;22.86
36748;BME280;22716;51.556;5.080;2022-08-11T13:43:22;101811.56;;;33.79;22.62
36748;BME280;22716;51.556;5.080;2022-08-11T13:45:55;101818.31;;;33.95;22.85
36748;BME280;22716;51.556;5.080;2022-08-11T13:48:36;101823.03;;;34.21;22.64
36748;BME280;22716;51.556;5.080;2022-08-11T13:51:08;101814.00;;;34.40;21.96
36748;BME280;22716;51.556;5.080;2022-08-11T13:53:51;101815.84;;;34.49;21.95
36748;BME280;22716;51.556;5.080;2022-08-11T13:56:22;101816.53;;;34.51;22.05
36748;BME280;22716;51.556;5.080;2022-08-11T13:58:53;101818.13;;;34.63;21.76
36748;BME280;22716;51.556;5.080;2022-08-11T14:01:36;101810.91;;;34.72;21.98
36748;BME280;22716;51.556;5.080;2022-08-11T14:04:10;101812.34;;;35.13;20.88
36748;BME280;22716;51.556;5.080;2022-08-11T14:06:48;101804.63;;;35.53;20.41
36748;BME280;22716;51.556;5.080;2022-08-11T14:09:23;101801.47;;;35.75;20.14
36748;BME280;22716;51.556;5.080;2022-08-11T14:11:56;101803.66;;;35.89;19.98
36748;BME280;22716;51.556;5.080;2022-08-11T14:14:39;101798.44;;;35.78;19.83
36748;BME280;22716;51.556;5.080;2022-08-11T14:17:15;101802.53;;;36.00;19.90
36748;BME280;22716;51.556;5.080;2022-08-11T14:19:49;101791.31;;;35.85;19.65
36748;BME280;22716;51.556;5.080;2022-08-11T14:22:19;101797.94;;;36.01;20.05
36748;BME280;22716;51.556;5.080;2022-08-11T14:24:47;101792.56;;;36.52;19.48
36748;BME280;22716;51.556;5.080;2022-08-11T14:27:17;101768.69;;;36.88;19.33
36748;BME280;22716;51.556;5.080;2022-08-11T14:29:53;101784.75;;;37.41;18.71
36748;BME280;22716;51.556;5.080;2022-08-11T14:32:25;101779.38;;;37.57;18.84
36748;BME280;22716;51.556;5.080;2022-08-11T14:34:55;101784.84;;;37.81;18.58
36748;BME280;22716;51.556;5.080;2022-08-11T14:37:27;101789.28;;;37.82;18.44
36748;BME280;22716;51.556;5.080;2022-08-11T14:39:58;101787.75;;;37.88;18.15
36748;BME280;22716;51.556;5.080;2022-08-11T14:42:49;101790.00;;;38.08;18.22
36748;BME280;22716;51.556;5.080;2022-08-11T14:45:31;101784.31;;;38.50;17.96
36748;BME280;22716;51.556;5.080;2022-08-11T14:48:26;101775.47;;;39.57;17.30
36748;BME280;22716;51.556;5.080;2022-08-11T14:50:56;101776.16;;;41.00;15.72
36748;BME280;22716;51.556;5.080;2022-08-11T14:53:27;101771.72;;;41.99;15.27
36748;BME280;22716;51.556;5.080;2022-08-11T14:55:57;101776.88;;;42.29;14.99
36748;BME280;22716;51.556;5.080;2022-08-11T14:58:40;101781.50;;;42.91;14.06